sensor_id;sensor_type;location;lat;lon;timestamp;temperature;humidity
53146;DHT22;39042;53.150;5.898;2022-12-24T09:03:15;8.20;99.90
53146;DHT22;39042;53.150;5.898;2022-12-24T09:05:41;8.30;99.90
53146;DHT22;39042;53.150;5.898;2022-12-24T09:08:07;8.40;99.90
53146;DHT22;39042;53.150;5.898;2022-12-24T09:10:32;8.40;99.90
53146;DHT22;39042;53.150;5.898;2022-12-24T09:12:58;8.50;99.90
53146;DHT22;39042;53.150;5.898;2022-12-24T09:15:24;8.50;99.90
53146;DHT22;39042;53.150;5.898;2022-12-24T09:17:49;8.60;99.90
53146;DHT22;39042;53.150;5.898;2022-12-24T09:20:15;8.60;99.90
53146;DHT22;39042;53.150;5.898;2022-12-24T09:22:41;8.60;99.90
53146;DHT22;39042;53.150;5.898;2022-12-24T09:25:06;8.70;99.90
53146;DHT22;39042;53.150;5.898;2022-12-24T09:27:34;8.70;99.90
53146;DHT22;39042;53.150;5.898;2022-12-24T09:30:00;8.80;99.90
53146;DHT22;39042;53.150;5.898;2022-12-24T09:32:26;8.80;99.90
53146;DHT22;39042;53.150;5.898;2022-12-24T09:34:51;8.90;99.90
53146;DHT22;39042;53.150;5.898;2022-12-24T09:37:17;9.00;99.90
53146;DHT22;39042;53.150;5.898;2022-12-24T09:39:43;9.00;99.90
53146;DHT22;39042;53.150;5.898;2022-12-24T09:42:30;9.00;99.90
53146;DHT22;39042;53.150;5.898;2022-12-24T09:45:07;9.10;99.90
53146;DHT22;39042;53.150;5.898;2022-12-24T09:47:43;9.10;99.90
53146;DHT22;39042;53.150;5.898;2022-12-24T09:52:45;9.20;99.90
53146;DHT22;39042;53.150;5.898;2022-12-24T09:55:19;9.10;99.90
53146;DHT22;39042;53.150;5.898;2022-12-24T09:57:45;9.10;99.90
53146;DHT22;39042;53.150;5.898;2022-12-24T10:00:20;9.20;99.90
53146;DHT22;39042;53.150;5.898;2022-12-24T10:02:46;9.10;99.90
53146;DHT22;39042;53.150;5.898;2022-12-24T10:05:16;9.10;99.90
53146;DHT22;39042;53.150;5.898;2022-12-24T10:12:46;9.20;99.90
53146;DHT22;39042;53.150;5.898;2022-12-24T10:27:51;9.40;99.90
53146;DHT22;39042;53.150;5.898;2022-12-24T10:30:19;9.40;99.90
53146;DHT22;39042;53.150;5.898;2022-12-24T10:32:46;9.40;99.90
53146;DHT22;39042;53.150;5.898;2022-12-24T10:37:41;9.50;99.90
53146;DHT22;39042;53.150;5.898;2022-12-24T10:40:11;9.60;99.90
53146;DHT22;39042;53.150;5.898;2022-12-24T10:42:39;9.60;99.90
53146;DHT22;39042;53.150;5.898;2022-12-24T10:45:09;9.60;99.90
53146;DHT22;39042;53.150;5.898;2022-12-24T10:47:38;9.70;99.90
53146;DHT22;39042;53.150;5.898;2022-12-24T10:50:09;9.60;99.90
53146;DHT22;39042;53.150;5.898;2022-12-24T10:52:39;9.60;99.90
53146;DHT22;39042;53.150;5.898;2022-12-24T10:55:07;9.60;99.90
53146;DHT22;39042;53.150;5.898;2022-12-24T10:57:33;9.60;99.90
53146;DHT22;39042;53.150;5.898;2022-12-24T11:00:00;9.70;99.90
53146;DHT22;39042;53.150;5.898;2022-12-24T21:18:36;4.40;99.90
53146;DHT22;39042;53.150;5.898;2022-12-24T21:21:02;4.30;99.90
53146;DHT22;39042;53.150;5.898;2022-12-24T21:23:27;4.30;99.90
53146;DHT22;39042;53.150;5.898;2022-12-24T21:26:00;4.30;99.90
53146;DHT22;39042;53.150;5.898;2022-12-24T21:28:27;4.30;99.90
53146;DHT22;39042;53.150;5.898;2022-12-24T21:30:53;4.30;99.90
53146;DHT22;39042;53.150;5.898;2022-12-24T21:33:19;4.30;99.90
53146;DHT22;39042;53.150;5.898;2022-12-24T21:35:44;4.40;99.90
53146;DHT22;39042;53.150;5.898;2022-12-24T21:38:10;4.40;99.90
53146;DHT22;39042;53.150;5.898;2022-12-24T21:40:36;4.40;99.90
53146;DHT22;39042;53.150;5.898;2022-12-24T21:43:02;4.40;99.90
53146;DHT22;39042;53.150;5.898;2022-12-24T21:45:27;4.40;99.90
53146;DHT22;39042;53.150;5.898;2022-12-24T21:47:53;4.50;99.90
53146;DHT22;39042;53.150;5.898;2022-12-24T21:50:19;4.50;99.90
53146;DHT22;39042;53.150;5.898;2022-12-24T21:53:03;4.60;99.90
53146;DHT22;39042;53.150;5.898;2022-12-24T21:55:52;4.60;99.90
53146;DHT22;39042;53.150;5.898;2022-12-24T21:58:18;4.60;99.90
53146;DHT22;39042;53.150;5.898;2022-12-24T22:00:44;4.80;99.90
53146;DHT22;39042;53.150;5.898;2022-12-24T22:03:10;4.80;99.90
53146;DHT22;39042;53.150;5.898;2022-12-24T22:05:36;4.90;99.90
53146;DHT22;39042;53.150;5.898;2022-12-24T22:08:02;4.90;99.90
53146;DHT22;39042;53.150;5.898;2022-12-24T22:10:46;4.90;99.90
53146;DHT22;39042;53.150;5.898;2022-12-24T22:13:31;4.90;99.90
53146;DHT22;39042;53.150;5.898;2022-12-24T22:15:56;5.00;99.90
53146;DHT22;39042;53.150;5.898;2022-12-24T22:18:23;5.00;99.90
53146;DHT22;39042;53.150;5.898;2022-12-24T22:20:49;5.10;99.90
53146;DHT22;39042;53.150;5.898;2022-12-24T22:23:15;5.00;99.90
53146;DHT22;39042;53.150;5.898;2022-12-24T22:25:42;5.00;99.90
53146;DHT22;39042;53.150;5.898;2022-12-24T22:28:08;5.10;99.90
53146;DHT22;39042;53.150;5.898;2022-12-24T22:30:37;5.10;99.90
53146;DHT22;39042;53.150;5.898;2022-12-24T22:33:03;5.20;99.90
53146;DHT22;39042;53.150;5.898;2022-12-24T22:35:29;5.10;99.90
53146;DHT22;39042;53.150;5.898;2022-12-24T22:37:55;5.20;99.90
53146;DHT22;39042;53.150;5.898;2022-12-24T22:40:21;5.20;99.90
53146;DHT22;39042;53.150;5.898;2022-12-24T22:42:47;5.30;99.90
53146;DHT22;39042;53.150;5.898;2022-12-24T22:45:12;5.30;99.90
53146;DHT22;39042;53.150;5.898;2022-12-24T22:47:38;5.30;99.90
53146;DHT22;39042;53.150;5.898;2022-12-24T22:50:04;5.30;99.90
53146;DHT22;39042;53.150;5.898;2022-12-24T22:52:31;5.30;99.90
53146;DHT22;39042;53.150;5.898;2022-12-24T22:54:57;5.30;99.90
53146;DHT22;39042;53.150;5.898;2022-12-24T22:57:22;5.40;99.90
53146;DHT22;39042;53.150;5.898;2022-12-24T22:59:48;5.40;99.90
53146;DHT22;39042;53.150;5.898;2022-12-24T23:02:13;5.40;99.90
53146;DHT22;39042;53.150;5.898;2022-12-24T23:04:39;5.40;99.90
53146;DHT22;39042;53.150;5.898;2022-12-24T23:07:06;5.40;99.90
53146;DHT22;39042;53.150;5.898;2022-12-24T23:09:32;5.40;99.90
53146;DHT22;39042;53.150;5.898;2022-12-24T23:11:58;5.50;99.90
53146;DHT22;39042;53.150;5.898;2022-12-24T23:14:23;5.50;99.90
53146;DHT22;39042;53.150;5.898;2022-12-24T23:17:08;5.50;99.90
53146;DHT22;39042;53.150;5.898;2022-12-24T23:19:33;5.50;99.90
53146;DHT22;39042;53.150;5.898;2022-12-24T23:22:00;5.50;99.90
53146;DHT22;39042;53.150;5.898;2022-12-24T23:24:26;5.40;99.90
53146;DHT22;39042;53.150;5.898;2022-12-24T23:26:51;5.40;99.90
53146;DHT22;39042;53.150;5.898;2022-12-24T23:29:17;5.40;99.90
53146;DHT22;39042;53.150;5.898;2022-12-24T23:31:44;5.40;99.90
53146;DHT22;39042;53.150;5.898;2022-12-24T23:34:09;5.40;99.90
53146;DHT22;39042;53.150;5.898;2022-12-24T23:36:35;5.30;99.90
53146;DHT22;39042;53.150;5.898;2022-12-24T23:39:01;5.20;99.90
53146;DHT22;39042;53.150;5.898;2022-12-24T23:41:26;5.10;99.90
53146;DHT22;39042;53.150;5.898;2022-12-24T23:43:52;5.10;99.90
53146;DHT22;39042;53.150;5.898;2022-12-24T23:46:18;5.10;99.90
53146;DHT22;39042;53.150;5.898;2022-12-24T23:48:44;5.10;99.90
53146;DHT22;39042;53.150;5.898;2022-12-24T23:51:14;5.00;99.90
53146;DHT22;39042;53.150;5.898;2022-12-24T23:53:40;5.00;99.90
53146;DHT22;39042;53.150;5.898;2022-12-24T23:56:06;5.00;99.90
53146;DHT22;39042;53.150;5.898;2022-12-24T23:58:32;5.10;99.90
